sensor_id;sensor_type;location;lat;lon;timestamp;P1;durP1;ratioP1;P2;durP2;ratioP2
1603;SDS011;795;49.296;11.348;2023-02-03T00:02:09;6.83;;;4.80;;
1603;SDS011;795;49.296;11.348;2023-02-03T00:04:36;5.30;;;4.80;;
1603;SDS011;795;49.296;11.348;2023-02-03T00:07:02;5.50;;;4.97;;
1603;SDS011;795;49.296;11.348;2023-02-03T00:09:30;6.67;;;4.40;;
1603;SDS011;795;49.296;11.348;2023-02-03T00:11:56;11.23;;;5.70;;
1603;SDS011;795;49.296;11.348;2023-02-03T00:14:23;8.40;;;4.60;;
1603;SDS011;795;49.296;11.348;2023-02-03T00:16:50;7.03;;;5.10;;
1603;SDS011;795;49.296;11.348;2023-02-03T00:19:17;5.03;;;4.53;;
1603;SDS011;795;49.296;11.348;2023-02-03T00:21:44;4.63;;;4.17;;
1603;SDS011;795;49.296;11.348;2023-02-03T00:24:11;5.10;;;4.60;;
1603;SDS011;795;49.296;11.348;2023-02-03T00:26:41;4.37;;;3.97;;
1603;SDS011;795;49.296;11.348;2023-02-03T00:29:08;12.83;;;4.60;;
1603;SDS011;795;49.296;11.348;2023-02-03T00:31:36;5.10;;;4.60;;
1603;SDS011;795;49.296;11.348;2023-02-03T00:34:03;5.93;;;4.70;;
1603;SDS011;795;49.296;11.348;2023-02-03T00:36:30;5.20;;;4.70;;
1603;SDS011;795;49.296;11.348;2023-02-03T00:38:58;6.37;;;4.73;;
1603;SDS011;795;49.296;11.348;2023-02-03T00:41:27;8.93;;;4.00;;
1603;SDS011;795;49.296;11.348;2023-02-03T00:43:56;5.83;;;4.10;;
1603;SDS011;795;49.296;11.348;2023-02-03T00:46:23;4.37;;;3.97;;
1603;SDS011;795;49.296;11.348;2023-02-03T00:48:50;6.40;;;4.47;;
1603;SDS011;795;49.296;11.348;2023-02-03T00:51:17;6.80;;;4.13;;
1603;SDS011;795;49.296;11.348;2023-02-03T00:53:44;5.80;;;4.40;;
1603;SDS011;795;49.296;11.348;2023-02-03T00:56:13;5.07;;;4.20;;
1603;SDS011;795;49.296;11.348;2023-02-03T00:58:40;3.93;;;3.63;;
1603;SDS011;795;49.296;11.348;2023-02-03T01:01:07;5.37;;;4.67;;
1603;SDS011;795;49.296;11.348;2023-02-03T01:03:35;5.55;;;4.22;;
1603;SDS011;795;49.296;11.348;2023-02-03T01:06:10;6.37;;;4.30;;
1603;SDS011;795;49.296;11.348;2023-02-03T01:08:42;6.67;;;4.70;;
1603;SDS011;795;49.296;11.348;2023-02-03T01:11:18;5.40;;;4.10;;
1603;SDS011;795;49.296;11.348;2023-02-03T01:13:53;8.20;;;5.77;;
1603;SDS011;795;49.296;11.348;2023-02-03T01:16:26;4.50;;;4.10;;
1603;SDS011;795;49.296;11.348;2023-02-03T01:18:56;5.83;;;4.20;;
1603;SDS011;795;49.296;11.348;2023-02-03T01:21:24;7.00;;;4.60;;
1603;SDS011;795;49.296;11.348;2023-02-03T01:23:52;3.67;;;3.37;;
1603;SDS011;795;49.296;11.348;2023-02-03T01:26:20;3.37;;;3.07;;
1603;SDS011;795;49.296;11.348;2023-02-03T01:28:58;5.40;;;4.90;;
1603;SDS011;795;49.296;11.348;2023-02-03T01:31:36;8.97;;;4.87;;
1603;SDS011;795;49.296;11.348;2023-02-03T01:34:10;6.73;;;5.37;;
1603;SDS011;795;49.296;11.348;2023-02-03T01:36:41;7.67;;;5.30;;
1603;SDS011;795;49.296;11.348;2023-02-03T01:39:08;8.80;;;5.60;;
1603;SDS011;795;49.296;11.348;2023-02-03T01:41:37;5.50;;;4.63;;
1603;SDS011;795;49.296;11.348;2023-02-03T01:52:42;6.20;;;5.50;;
1603;SDS011;795;49.296;11.348;2023-02-03T01:55:18;6.80;;;5.90;;
1603;SDS011;795;49.296;11.348;2023-02-03T01:57:57;16.80;;;6.10;;
1603;SDS011;795;49.296;11.348;2023-02-03T02:00:41;8.90;;;6.17;;
1603;SDS011;795;49.296;11.348;2023-02-03T02:03:10;6.30;;;5.53;;
1603;SDS011;795;49.296;11.348;2023-02-03T02:08:36;10.70;;;6.73;;
1603;SDS011;795;49.296;11.348;2023-02-03T02:11:07;9.93;;;7.47;;
1603;SDS011;795;49.296;11.348;2023-02-03T02:13:34;11.37;;;7.63;;
1603;SDS011;795;49.296;11.348;2023-02-03T02:18:46;12.63;;;7.67;;
1603;SDS011;795;49.296;11.348;2023-02-03T02:38:19;13.70;;;7.20;;
1603;SDS011;795;49.296;11.348;2023-02-03T02:40:43;10.30;;;6.33;;
1603;SDS011;795;49.296;11.348;2023-02-03T02:43:33;18.83;;;8.07;;
1603;SDS011;795;49.296;11.348;2023-02-03T02:46:17;10.73;;;7.83;;
1603;SDS011;795;49.296;11.348;2023-02-03T02:49:02;12.60;;;9.80;;
1603;SDS011;795;49.296;11.348;2023-02-03T02:51:56;9.30;;;7.70;;
1603;SDS011;795;49.296;11.348;2023-02-03T02:54:32;10.90;;;7.40;;
1603;SDS011;795;49.296;11.348;2023-02-03T02:57:07;12.83;;;8.73;;
1603;SDS011;795;49.296;11.348;2023-02-03T02:59:39;11.40;;;8.00;;
1603;SDS011;795;49.296;11.348;2023-02-03T03:02:07;14.53;;;8.87;;
1603;SDS011;795;49.296;11.348;2023-02-03T03:04:39;12.03;;;8.70;;
1603;SDS011;795;49.296;11.348;2023-02-03T03:07:15;14.13;;;9.50;;
1603;SDS011;795;49.296;11.348;2023-02-03T03:09:53;10.10;;;7.67;;
1603;SDS011;795;49.296;11.348;2023-02-03T03:12:38;11.37;;;8.23;;
1603;SDS011;795;49.296;11.348;2023-02-03T03:15:18;14.33;;;8.37;;
1603;SDS011;795;49.296;11.348;2023-02-03T03:17:58;10.03;;;9.03;;
1603;SDS011;795;49.296;11.348;2023-02-03T03:20:48;13.87;;;8.67;;
1603;SDS011;795;49.296;11.348;2023-02-03T03:23:32;13.63;;;8.13;;
1603;SDS011;795;49.296;11.348;2023-02-03T03:29:01;9.97;;;7.57;;
1603;SDS011;795;49.296;11.348;2023-02-03T03:32:00;9.00;;;7.27;;
1603;SDS011;795;49.296;11.348;2023-02-03T03:34:28;9.93;;;7.07;;
1603;SDS011;795;49.296;11.348;2023-02-03T03:37:00;14.87;;;9.00;;
1603;SDS011;795;49.296;11.348;2023-02-03T03:40:07;12.43;;;6.80;;
1603;SDS011;795;49.296;11.348;2023-02-03T03:42:59;8.70;;;6.73;;
1603;SDS011;795;49.296;11.348;2023-02-03T03:45:41;7.40;;;6.70;;
1603;SDS011;795;49.296;11.348;2023-02-03T03:48:33;14.10;;;7.23;;
1603;SDS011;795;49.296;11.348;2023-02-03T03:51:17;10.50;;;7.40;;
1603;SDS011;795;49.296;11.348;2023-02-03T03:54:03;8.80;;;7.90;;
1603;SDS011;795;49.296;11.348;2023-02-03T03:56:40;7.57;;;6.10;;
1603;SDS011;795;49.296;11.348;2023-02-03T03:59:23;6.60;;;4.90;;
1603;SDS011;795;49.296;11.348;2023-02-03T04:01:58;8.37;;;6.33;;
1603;SDS011;795;49.296;11.348;2023-02-03T04:04:31;8.20;;;6.20;;
1603;SDS011;795;49.296;11.348;2023-02-03T04:07:03;10.57;;;7.10;;
1603;SDS011;795;49.296;11.348;2023-02-03T04:09:31;9.77;;;7.80;;
1603;SDS011;795;49.296;11.348;2023-02-03T04:12:02;9.83;;;5.93;;
1603;SDS011;795;49.296;11.348;2023-02-03T04:14:34;12.67;;;7.13;;
1603;SDS011;795;49.296;11.348;2023-02-03T04:17:05;14.87;;;7.80;;
1603;SDS011;795;49.296;11.348;2023-02-03T04:19:34;11.63;;;8.03;;
1603;SDS011;795;49.296;11.348;2023-02-03T04:22:00;10.10;;;8.20;;
1603;SDS011;795;49.296;11.348;2023-02-03T04:24:27;11.03;;;7.50;;
1603;SDS011;795;49.296;11.348;2023-02-03T04:26:54;9.73;;;6.63;;
1603;SDS011;795;49.296;11.348;2023-02-03T04:29:21;6.10;;;5.50;;
1603;SDS011;795;49.296;11.348;2023-02-03T04:31:48;8.70;;;7.13;;
1603;SDS011;795;49.296;11.348;2023-02-03T04:34:15;12.10;;;8.40;;
1603;SDS011;795;49.296;11.348;2023-02-03T04:36:42;10.10;;;7.33;;
1603;SDS011;795;49.296;11.348;2023-02-03T04:39:09;11.20;;;7.53;;
1603;SDS011;795;49.296;11.348;2023-02-03T04:41:36;13.03;;;7.70;;
1603;SDS011;795;49.296;11.348;2023-02-03T04:44:03;13.90;;;9.07;;
1603;SDS011;795;49.296;11.348;2023-02-03T04:46:30;9.47;;;7.10;;
1603;SDS011;795;49.296;11.348;2023-02-03T04:48:57;9.20;;;7.53;;
1603;SDS011;795;49.296;11.348;2023-02-03T04:51:24;9.90;;;7.87;;
1603;SDS011;795;49.296;11.348;2023-02-03T04:53:51;10.80;;;7.27;;
1603;SDS011;795;49.296;11.348;2023-02-03T04:56:18;7.63;;;6.90;;
1603;SDS011;795;49.296;11.348;2023-02-03T04:58:45;11.37;;;7.90;;
1603;SDS011;795;49.296;11.348;2023-02-03T05:01:12;9.73;;;7.70;;
1603;SDS011;795;49.296;11.348;2023-02-03T05:03:39;9.23;;;6.77;;
1603;SDS011;795;49.296;11.348;2023-02-03T05:06:06;10.63;;;7.33;;
1603;SDS011;795;49.296;11.348;2023-02-03T05:08:33;9.23;;;7.87;;
1603;SDS011;795;49.296;11.348;2023-02-03T05:11:00;7.90;;;7.10;;
1603;SDS011;795;49.296;11.348;2023-02-03T05:13:27;9.37;;;6.63;;
1603;SDS011;795;49.296;11.348;2023-02-03T05:15:55;8.47;;;7.43;;
1603;SDS011;795;49.296;11.348;2023-02-03T05:18:22;9.70;;;7.20;;
1603;SDS011;795;49.296;11.348;2023-02-03T05:20:49;8.50;;;7.50;;
1603;SDS011;795;49.296;11.348;2023-02-03T05:23:16;9.57;;;6.67;;
1603;SDS011;795;49.296;11.348;2023-02-03T05:25:43;9.80;;;6.87;;
1603;SDS011;795;49.296;11.348;2023-02-03T05:28:10;7.93;;;7.17;;
1603;SDS011;795;49.296;11.348;2023-02-03T05:30:39;7.30;;;6.53;;
1603;SDS011;795;49.296;11.348;2023-02-03T05:33:06;9.27;;;7.07;;
1603;SDS011;795;49.296;11.348;2023-02-03T05:35:33;7.47;;;6.70;;
1603;SDS011;795;49.296;11.348;2023-02-03T05:38:00;7.97;;;7.20;;
1603;SDS011;795;49.296;11.348;2023-02-03T05:40:27;11.20;;;7.07;;
1603;SDS011;795;49.296;11.348;2023-02-03T05:43:13;9.30;;;6.70;;
1603;SDS011;795;49.296;11.348;2023-02-03T05:45:40;6.10;;;5.50;;
1603;SDS011;795;49.296;11.348;2023-02-03T05:48:07;7.07;;;6.37;;
1603;SDS011;795;49.296;11.348;2023-02-03T05:50:35;6.00;;;5.40;;
1603;SDS011;795;49.296;11.348;2023-02-03T05:53:04;10.03;;;5.93;;
1603;SDS011;795;49.296;11.348;2023-02-03T05:55:33;9.13;;;6.60;;
1603;SDS011;795;49.296;11.348;2023-02-03T05:58:03;10.80;;;5.57;;
1603;SDS011;795;49.296;11.348;2023-02-03T06:00:30;5.50;;;5.00;;
1603;SDS011;795;49.296;11.348;2023-02-03T06:02:58;7.03;;;5.47;;
1603;SDS011;795;49.296;11.348;2023-02-03T06:05:27;6.80;;;6.13;;
1603;SDS011;795;49.296;11.348;2023-02-03T06:07:58;6.40;;;5.80;;
1603;SDS011;795;49.296;11.348;2023-02-03T06:10:26;5.70;;;5.20;;
1603;SDS011;795;49.296;11.348;2023-02-03T06:12:54;5.30;;;4.80;;
1603;SDS011;795;49.296;11.348;2023-02-03T06:15:21;9.63;;;5.40;;
1603;SDS011;795;49.296;11.348;2023-02-03T06:17:48;5.93;;;5.03;;
1603;SDS011;795;49.296;11.348;2023-02-03T06:20:16;13.20;;;5.57;;
1603;SDS011;795;49.296;11.348;2023-02-03T06:22:45;6.03;;;5.43;;
1603;SDS011;795;49.296;11.348;2023-02-03T06:25:12;6.00;;;5.40;;
1603;SDS011;795;49.296;11.348;2023-02-03T06:27:39;6.70;;;5.93;;
1603;SDS011;795;49.296;11.348;2023-02-03T06:30:07;5.43;;;4.93;;
1603;SDS011;795;49.296;11.348;2023-02-03T06:32:36;4.90;;;4.40;;
1603;SDS011;795;49.296;11.348;2023-02-03T06:35:03;5.80;;;4.57;;
1603;SDS011;795;49.296;11.348;2023-02-03T06:37:30;7.00;;;4.20;;
1603;SDS011;795;49.296;11.348;2023-02-03T06:39:57;4.67;;;3.20;;
1603;SDS011;795;49.296;11.348;2023-02-03T06:42:24;4.57;;;4.17;;
1603;SDS011;795;49.296;11.348;2023-02-03T06:44:51;4.83;;;4.40;;
1603;SDS011;795;49.296;11.348;2023-02-03T06:47:18;4.90;;;4.40;;
1603;SDS011;795;49.296;11.348;2023-02-03T06:49:45;5.40;;;4.90;;
1603;SDS011;795;49.296;11.348;2023-02-03T06:52:12;4.20;;;3.80;;
1603;SDS011;795;49.296;11.348;2023-02-03T06:54:40;6.03;;;4.20;;
1603;SDS011;795;49.296;11.348;2023-02-03T06:57:07;4.80;;;4.40;;
1603;SDS011;795;49.296;11.348;2023-02-03T06:59:34;6.20;;;4.37;;
1603;SDS011;795;49.296;11.348;2023-02-03T07:02:01;5.50;;;5.00;;
1603;SDS011;795;49.296;11.348;2023-02-03T07:04:28;6.10;;;5.57;;
1603;SDS011;795;49.296;11.348;2023-02-03T07:06:55;5.67;;;4.37;;
1603;SDS011;795;49.296;11.348;2023-02-03T07:09:22;4.97;;;4.50;;
1603;SDS011;795;49.296;11.348;2023-02-03T07:11:50;6.30;;;4.60;;
1603;SDS011;795;49.296;11.348;2023-02-03T07:14:17;5.30;;;4.43;;
1603;SDS011;795;49.296;11.348;2023-02-03T07:16:44;4.90;;;4.00;;
1603;SDS011;795;49.296;11.348;2023-02-03T07:19:11;4.20;;;3.90;;
1603;SDS011;795;49.296;11.348;2023-02-03T07:21:38;4.00;;;3.70;;
1603;SDS011;795;49.296;11.348;2023-02-03T07:24:05;8.83;;;5.13;;
1603;SDS011;795;49.296;11.348;2023-02-03T07:26:32;3.97;;;3.57;;
1603;SDS011;795;49.296;11.348;2023-02-03T07:28:59;4.03;;;3.60;;
1603;SDS011;795;49.296;11.348;2023-02-03T07:31:26;4.27;;;3.90;;
1603;SDS011;795;49.296;11.348;2023-02-03T07:33:53;4.07;;;3.73;;
1603;SDS011;795;49.296;11.348;2023-02-03T07:36:20;4.40;;;4.00;;
1603;SDS011;795;49.296;11.348;2023-02-03T07:38:47;3.63;;;3.37;;
1603;SDS011;795;49.296;11.348;2023-02-03T07:41:16;4.03;;;3.63;;
1603;SDS011;795;49.296;11.348;2023-02-03T07:43:43;4.07;;;3.77;;
1603;SDS011;795;49.296;11.348;2023-02-03T07:46:11;5.77;;;3.50;;
1603;SDS011;795;49.296;11.348;2023-02-03T07:48:38;4.77;;;4.10;;
1603;SDS011;795;49.296;11.348;2023-02-03T07:51:05;5.60;;;4.00;;
1603;SDS011;795;49.296;11.348;2023-02-03T07:53:33;3.90;;;3.60;;
1603;SDS011;795;49.296;11.348;2023-02-03T07:56:01;3.10;;;2.90;;
1603;SDS011;795;49.296;11.348;2023-02-03T07:58:30;4.33;;;3.03;;
1603;SDS011;795;49.296;11.348;2023-02-03T08:00:58;4.97;;;4.47;;
1603;SDS011;795;49.296;11.348;2023-02-03T08:03:25;3.90;;;3.60;;
1603;SDS011;795;49.296;11.348;2023-02-03T08:05:52;4.73;;;4.30;;
1603;SDS011;795;49.296;11.348;2023-02-03T08:08:19;4.00;;;3.70;;
1603;SDS011;795;49.296;11.348;2023-02-03T08:10:46;4.17;;;3.77;;
1603;SDS011;795;49.296;11.348;2023-02-03T08:13:13;3.90;;;3.50;;
1603;SDS011;795;49.296;11.348;2023-02-03T08:15:40;4.13;;;3.73;;
1603;SDS011;795;49.296;11.348;2023-02-03T08:18:07;4.17;;;3.77;;
1603;SDS011;795;49.296;11.348;2023-02-03T08:20:34;4.10;;;3.80;;
1603;SDS011;795;49.296;11.348;2023-02-03T08:23:01;4.10;;;3.77;;
1603;SDS011;795;49.296;11.348;2023-02-03T08:25:30;3.93;;;3.63;;
1603;SDS011;795;49.296;11.348;2023-02-03T08:27:57;4.10;;;3.80;;
1603;SDS011;795;49.296;11.348;2023-02-03T08:30:24;3.67;;;3.37;;
1603;SDS011;795;49.296;11.348;2023-02-03T08:32:52;4.00;;;2.77;;
1603;SDS011;795;49.296;11.348;2023-02-03T08:35:19;3.87;;;3.47;;
1603;SDS011;795;49.296;11.348;2023-02-03T08:37:46;4.53;;;3.63;;
1603;SDS011;795;49.296;11.348;2023-02-03T08:40:12;3.50;;;3.20;;
1603;SDS011;795;49.296;11.348;2023-02-03T08:42:40;3.60;;;3.30;;
1603;SDS011;795;49.296;11.348;2023-02-03T08:45:07;3.60;;;3.30;;
1603;SDS011;795;49.296;11.348;2023-02-03T08:47:35;4.07;;;3.67;;
1603;SDS011;795;49.296;11.348;2023-02-03T08:50:06;5.27;;;4.50;;
1603;SDS011;795;49.296;11.348;2023-02-03T08:52:35;3.83;;;3.53;;
1603;SDS011;795;49.296;11.348;2023-02-03T08:55:03;4.60;;;4.20;;
1603;SDS011;795;49.296;11.348;2023-02-03T08:57:31;5.83;;;4.40;;
1603;SDS011;795;49.296;11.348;2023-02-03T09:00:01;3.97;;;3.67;;
1603;SDS011;795;49.296;11.348;2023-02-03T09:03:39;4.77;;;3.80;;
1603;SDS011;795;49.296;11.348;2023-02-03T09:06:07;4.97;;;4.57;;
1603;SDS011;795;49.296;11.348;2023-02-03T09:08:38;4.30;;;3.90;;
1603;SDS011;795;49.296;11.348;2023-02-03T09:11:08;4.30;;;4.00;;
1603;SDS011;795;49.296;11.348;2023-02-03T09:13:36;10.43;;;4.00;;
1603;SDS011;795;49.296;11.348;2023-02-03T09:16:05;4.20;;;3.80;;
1603;SDS011;795;49.296;11.348;2023-02-03T09:18:33;3.63;;;3.43;;
1603;SDS011;795;49.296;11.348;2023-02-03T09:21:01;4.00;;;3.63;;
1603;SDS011;795;49.296;11.348;2023-02-03T09:23:32;4.27;;;3.23;;
1603;SDS011;795;49.296;11.348;2023-02-03T09:26:07;4.10;;;3.70;;
1603;SDS011;795;49.296;11.348;2023-02-03T09:28:40;2.97;;;2.77;;
1603;SDS011;795;49.296;11.348;2023-02-03T09:31:12;5.33;;;3.53;;
1603;SDS011;795;49.296;11.348;2023-02-03T09:33:44;3.83;;;3.53;;
1603;SDS011;795;49.296;11.348;2023-02-03T09:36:12;2.87;;;2.67;;
1603;SDS011;795;49.296;11.348;2023-02-03T09:38:39;5.17;;;3.77;;
1603;SDS011;795;49.296;11.348;2023-02-03T09:47:13;2.20;;;2.10;;
1603;SDS011;795;49.296;11.348;2023-02-03T09:49:59;3.47;;;3.07;;
1603;SDS011;795;49.296;11.348;2023-02-03T09:52:39;2.60;;;2.40;;
1603;SDS011;795;49.296;11.348;2023-02-03T09:55:16;2.20;;;2.10;;
1603;SDS011;795;49.296;11.348;2023-02-03T09:58:10;6.40;;;4.20;;
1603;SDS011;795;49.296;11.348;2023-02-03T10:00:44;2.60;;;2.30;;
1603;SDS011;795;49.296;11.348;2023-02-03T10:03:25;2.60;;;2.17;;
1603;SDS011;795;49.296;11.348;2023-02-03T10:09:07;3.43;;;3.13;;
1603;SDS011;795;49.296;11.348;2023-02-03T10:12:49;5.07;;;2.70;;
1603;SDS011;795;49.296;11.348;2023-02-03T10:18:44;3.20;;;2.90;;
1603;SDS011;795;49.296;11.348;2023-02-03T10:21:23;3.60;;;3.30;;
1603;SDS011;795;49.296;11.348;2023-02-03T10:24:18;2.80;;;2.60;;
1603;SDS011;795;49.296;11.348;2023-02-03T10:26:59;2.30;;;2.00;;
1603;SDS011;795;49.296;11.348;2023-02-03T10:30:02;2.70;;;2.50;;
1603;SDS011;795;49.296;11.348;2023-02-03T10:33:09;2.90;;;2.53;;
1603;SDS011;795;49.296;11.348;2023-02-03T10:42:17;3.00;;;1.97;;
1603;SDS011;795;49.296;11.348;2023-02-03T10:44:57;3.13;;;1.77;;
1603;SDS011;795;49.296;11.348;2023-02-03T10:47:26;3.90;;;2.17;;
1603;SDS011;795;49.296;11.348;2023-02-03T10:50:22;2.83;;;2.33;;
1603;SDS011;795;49.296;11.348;2023-02-03T10:55:45;2.40;;;2.30;;
1603;SDS011;795;49.296;11.348;2023-02-03T10:58:26;2.00;;;1.83;;
1603;SDS011;795;49.296;11.348;2023-02-03T11:01:05;1.90;;;1.80;;
1603;SDS011;795;49.296;11.348;2023-02-03T11:04:04;2.03;;;1.93;;
1603;SDS011;795;49.296;11.348;2023-02-03T11:06:32;2.47;;;2.27;;
1603;SDS011;795;49.296;11.348;2023-02-03T11:09:01;2.03;;;1.93;;
1603;SDS011;795;49.296;11.348;2023-02-03T11:12:15;2.43;;;2.33;;
1603;SDS011;795;49.296;11.348;2023-02-03T11:14:48;1.90;;;1.80;;
1603;SDS011;795;49.296;11.348;2023-02-03T11:17:22;2.07;;;1.97;;
1603;SDS011;795;49.296;11.348;2023-02-03T11:20:03;3.17;;;2.67;;
1603;SDS011;795;49.296;11.348;2023-02-03T11:22:44;3.27;;;2.97;;
1603;SDS011;795;49.296;11.348;2023-02-03T11:27:54;3.67;;;3.00;;
1603;SDS011;795;49.296;11.348;2023-02-03T11:30:29;4.53;;;4.03;;
1603;SDS011;795;49.296;11.348;2023-02-03T11:32:59;3.53;;;2.77;;
1603;SDS011;795;49.296;11.348;2023-02-03T11:35:28;5.30;;;4.20;;
1603;SDS011;795;49.296;11.348;2023-02-03T11:37:57;3.07;;;2.87;;
1603;SDS011;795;49.296;11.348;2023-02-03T11:40:31;3.40;;;3.20;;
1603;SDS011;795;49.296;11.348;2023-02-03T11:43:21;4.03;;;3.10;;
1603;SDS011;795;49.296;11.348;2023-02-03T11:45:49;2.90;;;2.70;;
1603;SDS011;795;49.296;11.348;2023-02-03T11:48:25;2.83;;;2.60;;
1603;SDS011;795;49.296;11.348;2023-02-03T11:54:52;2.03;;;1.93;;
1603;SDS011;795;49.296;11.348;2023-02-03T12:00:28;3.80;;;3.40;;
1603;SDS011;795;49.296;11.348;2023-02-03T12:03:20;2.23;;;2.13;;
1603;SDS011;795;49.296;11.348;2023-02-03T12:06:40;2.03;;;1.93;;
1603;SDS011;795;49.296;11.348;2023-02-03T12:09:56;2.43;;;2.30;;
1603;SDS011;795;49.296;11.348;2023-02-03T12:16:09;2.70;;;2.50;;
1603;SDS011;795;49.296;11.348;2023-02-03T12:25:17;2.33;;;2.13;;
1603;SDS011;795;49.296;11.348;2023-02-03T12:28:33;2.20;;;2.00;;
1603;SDS011;795;49.296;11.348;2023-02-03T12:34:52;1.80;;;1.70;;
1603;SDS011;795;49.296;11.348;2023-02-03T12:38:02;2.53;;;2.00;;
1603;SDS011;795;49.296;11.348;2023-02-03T12:40:47;1.37;;;1.37;;
1603;SDS011;795;49.296;11.348;2023-02-03T12:52:17;1.73;;;1.60;;
1603;SDS011;795;49.296;11.348;2023-02-03T12:55:26;1.30;;;1.30;;
1603;SDS011;795;49.296;11.348;2023-02-03T12:58:08;0.90;;;0.90;;
1603;SDS011;795;49.296;11.348;2023-02-03T13:01:05;1.27;;;1.23;;
1603;SDS011;795;49.296;11.348;2023-02-03T13:06:38;2.10;;;2.00;;
1603;SDS011;795;49.296;11.348;2023-02-03T13:09:30;1.93;;;1.80;;
1603;SDS011;795;49.296;11.348;2023-02-03T13:12:27;1.97;;;1.87;;
1603;SDS011;795;49.296;11.348;2023-02-03T13:15:05;1.60;;;1.50;;
1603;SDS011;795;49.296;11.348;2023-02-03T13:20:59;3.73;;;1.93;;
1603;SDS011;795;49.296;11.348;2023-02-03T13:23:26;2.10;;;1.80;;
1603;SDS011;795;49.296;11.348;2023-02-03T13:26:06;2.13;;;2.03;;
1603;SDS011;795;49.296;11.348;2023-02-03T13:43:50;1.33;;;1.23;;
1603;SDS011;795;49.296;11.348;2023-02-03T13:46:25;2.53;;;1.10;;
1603;SDS011;795;49.296;11.348;2023-02-03T13:48:59;2.30;;;1.97;;
1603;SDS011;795;49.296;11.348;2023-02-03T13:51:42;1.20;;;1.10;;
1603;SDS011;795;49.296;11.348;2023-02-03T13:54:13;1.67;;;1.57;;
1603;SDS011;795;49.296;11.348;2023-02-03T13:57:00;2.27;;;1.60;;
1603;SDS011;795;49.296;11.348;2023-02-03T13:59:46;2.13;;;1.60;;
1603;SDS011;795;49.296;11.348;2023-02-03T14:10:23;3.47;;;2.07;;
1603;SDS011;795;49.296;11.348;2023-02-03T14:22:54;1.60;;;1.50;;
1603;SDS011;795;49.296;11.348;2023-02-03T14:25:41;1.93;;;1.73;;
1603;SDS011;795;49.296;11.348;2023-02-03T14:28:17;1.87;;;1.77;;
1603;SDS011;795;49.296;11.348;2023-02-03T14:31:00;1.80;;;1.70;;
1603;SDS011;795;49.296;11.348;2023-02-03T14:36:30;1.30;;;1.30;;
1603;SDS011;795;49.296;11.348;2023-02-03T14:54:32;1.97;;;1.87;;
1603;SDS011;795;49.296;11.348;2023-02-03T14:57:46;2.97;;;2.00;;
1603;SDS011;795;49.296;11.348;2023-02-03T15:00:30;1.90;;;1.80;;
1603;SDS011;795;49.296;11.348;2023-02-03T15:11:30;1.57;;;1.47;;
1603;SDS011;795;49.296;11.348;2023-02-03T15:16:59;1.33;;;1.33;;
1603;SDS011;795;49.296;11.348;2023-02-03T15:19:46;1.87;;;1.70;;
1603;SDS011;795;49.296;11.348;2023-02-03T15:22:20;3.10;;;2.40;;
1603;SDS011;795;49.296;11.348;2023-02-03T15:25:00;1.63;;;1.53;;
1603;SDS011;795;49.296;11.348;2023-02-03T15:27:41;2.40;;;2.20;;
1603;SDS011;795;49.296;11.348;2023-02-03T15:33:01;1.90;;;1.80;;
1603;SDS011;795;49.296;11.348;2023-02-03T15:35:39;1.67;;;1.57;;
1603;SDS011;795;49.296;11.348;2023-02-03T15:38:17;2.93;;;2.83;;
1603;SDS011;795;49.296;11.348;2023-02-03T15:40:54;2.00;;;1.90;;
1603;SDS011;795;49.296;11.348;2023-02-03T15:43:27;1.67;;;1.57;;
1603;SDS011;795;49.296;11.348;2023-02-03T15:46:07;1.70;;;1.60;;
1603;SDS011;795;49.296;11.348;2023-02-03T15:49:26;1.90;;;1.80;;
1603;SDS011;795;49.296;11.348;2023-02-03T15:52:09;1.60;;;1.50;;
1603;SDS011;795;49.296;11.348;2023-02-03T15:54:52;2.00;;;1.90;;
1603;SDS011;795;49.296;11.348;2023-02-03T15:57:43;2.70;;;2.50;;
1603;SDS011;795;49.296;11.348;2023-02-03T16:00:22;2.30;;;2.20;;
1603;SDS011;795;49.296;11.348;2023-02-03T16:03:13;1.70;;;1.60;;
1603;SDS011;795;49.296;11.348;2023-02-03T16:05:46;2.30;;;2.10;;
1603;SDS011;795;49.296;11.348;2023-02-03T16:08:33;1.90;;;1.80;;
1603;SDS011;795;49.296;11.348;2023-02-03T16:14:21;2.67;;;2.47;;
1603;SDS011;795;49.296;11.348;2023-02-03T16:17:01;1.90;;;1.80;;
1603;SDS011;795;49.296;11.348;2023-02-03T16:19:31;3.70;;;3.20;;
1603;SDS011;795;49.296;11.348;2023-02-03T16:22:03;3.27;;;2.97;;
1603;SDS011;795;49.296;11.348;2023-02-03T16:25:11;1.90;;;1.70;;
1603;SDS011;795;49.296;11.348;2023-02-03T16:30:58;1.53;;;1.53;;
1603;SDS011;795;49.296;11.348;2023-02-03T16:33:48;4.63;;;3.00;;
1603;SDS011;795;49.296;11.348;2023-02-03T16:36:42;2.30;;;2.20;;
1603;SDS011;795;49.296;11.348;2023-02-03T16:39:29;2.53;;;2.43;;
1603;SDS011;795;49.296;11.348;2023-02-03T16:42:16;3.07;;;1.70;;
1603;SDS011;795;49.296;11.348;2023-02-03T16:45:10;2.03;;;1.90;;
1603;SDS011;795;49.296;11.348;2023-02-03T16:48:01;2.07;;;1.97;;
1603;SDS011;795;49.296;11.348;2023-02-03T16:50:48;2.63;;;2.13;;
1603;SDS011;795;49.296;11.348;2023-02-03T16:53:25;3.03;;;2.83;;
1603;SDS011;795;49.296;11.348;2023-02-03T16:55:59;3.67;;;3.37;;
1603;SDS011;795;49.296;11.348;2023-02-03T16:58:30;3.70;;;2.77;;
1603;SDS011;795;49.296;11.348;2023-02-03T17:00:59;4.47;;;3.80;;
1603;SDS011;795;49.296;11.348;2023-02-03T17:03:32;3.73;;;3.47;;
1603;SDS011;795;49.296;11.348;2023-02-03T17:06:03;2.67;;;2.47;;
1603;SDS011;795;49.296;11.348;2023-02-03T17:08:35;1.77;;;1.70;;
1603;SDS011;795;49.296;11.348;2023-02-03T17:11:06;2.30;;;2.20;;
1603;SDS011;795;49.296;11.348;2023-02-03T17:13:40;5.17;;;2.70;;
1603;SDS011;795;49.296;11.348;2023-02-03T17:16:13;2.60;;;2.40;;
1603;SDS011;795;49.296;11.348;2023-02-03T17:18:45;2.03;;;1.90;;
1603;SDS011;795;49.296;11.348;2023-02-03T17:21:13;2.10;;;2.00;;
1603;SDS011;795;49.296;11.348;2023-02-03T17:23:47;2.53;;;2.33;;
1603;SDS011;795;49.296;11.348;2023-02-03T17:26:14;4.00;;;2.47;;
1603;SDS011;795;49.296;11.348;2023-02-03T17:28:42;3.60;;;3.30;;
1603;SDS011;795;49.296;11.348;2023-02-03T17:31:14;2.20;;;2.10;;
1603;SDS011;795;49.296;11.348;2023-02-03T17:33:48;1.70;;;1.60;;
1603;SDS011;795;49.296;11.348;2023-02-03T17:36:17;1.80;;;1.70;;
1603;SDS011;795;49.296;11.348;2023-02-03T17:38:48;2.07;;;1.93;;
1603;SDS011;795;49.296;11.348;2023-02-03T17:41:40;2.50;;;2.40;;
1603;SDS011;795;49.296;11.348;2023-02-03T17:44:24;1.90;;;1.80;;
1603;SDS011;795;49.296;11.348;2023-02-03T17:47:09;2.50;;;2.07;;
1603;SDS011;795;49.296;11.348;2023-02-03T17:49:54;2.27;;;2.17;;
1603;SDS011;795;49.296;11.348;2023-02-03T17:52:38;2.10;;;2.00;;
1603;SDS011;795;49.296;11.348;2023-02-03T17:55:23;2.23;;;2.13;;
1603;SDS011;795;49.296;11.348;2023-02-03T17:57:50;2.40;;;2.30;;
1603;SDS011;795;49.296;11.348;2023-02-03T18:00:17;1.80;;;1.70;;
1603;SDS011;795;49.296;11.348;2023-02-03T18:02:47;3.40;;;3.03;;
1603;SDS011;795;49.296;11.348;2023-02-03T18:05:17;3.10;;;2.77;;
1603;SDS011;795;49.296;11.348;2023-02-03T18:07:44;2.10;;;2.00;;
1603;SDS011;795;49.296;11.348;2023-02-03T18:10:16;3.43;;;2.63;;
1603;SDS011;795;49.296;11.348;2023-02-03T18:12:43;2.50;;;1.90;;
1603;SDS011;795;49.296;11.348;2023-02-03T18:15:10;2.37;;;2.27;;
1603;SDS011;795;49.296;11.348;2023-02-03T18:17:37;2.93;;;2.70;;
1603;SDS011;795;49.296;11.348;2023-02-03T18:20:04;2.70;;;2.50;;
1603;SDS011;795;49.296;11.348;2023-02-03T18:22:32;2.80;;;2.60;;
1603;SDS011;795;49.296;11.348;2023-02-03T18:24:59;3.03;;;2.37;;
1603;SDS011;795;49.296;11.348;2023-02-03T18:27:26;2.93;;;2.70;;
1603;SDS011;795;49.296;11.348;2023-02-03T18:29:53;2.73;;;2.53;;
1603;SDS011;795;49.296;11.348;2023-02-03T18:32:21;5.90;;;2.80;;
1603;SDS011;795;49.296;11.348;2023-02-03T18:34:48;2.90;;;2.70;;
1603;SDS011;795;49.296;11.348;2023-02-03T18:37:15;1.90;;;1.80;;
1603;SDS011;795;49.296;11.348;2023-02-03T18:39:43;2.07;;;1.97;;
1603;SDS011;795;49.296;11.348;2023-02-03T18:42:10;2.13;;;2.03;;
1603;SDS011;795;49.296;11.348;2023-02-03T18:44:37;2.17;;;2.07;;